createdAt,value
2023-11-27T00:00:29.300Z,16.000000
2023-11-27T00:05:19.155Z,16.000000
2023-11-27T00:11:02.600Z,12.000000
2023-11-27T00:15:19.150Z,9.000000
2023-11-27T00:20:19.186Z,13.000000
2023-11-27T00:26:02.595Z,11.000000
2023-11-27T00:30:19.189Z,13.000000
2023-11-27T00:35:17.255Z,15.000000
2023-11-27T00:40:19.216Z,9.000000
2023-11-27T00:45:19.200Z,11.000000
2023-11-27T00:50:19.239Z,11.000000
2023-11-27T00:55:17.381Z,11.000000
2023-11-27T01:00:17.409Z,8.000000
2023-11-27T01:05:19.256Z,12.000000
2023-11-27T01:10:19.199Z,15.000000
2023-11-27T01:15:19.193Z,14.000000
2023-11-27T01:20:17.415Z,12.000000
2023-11-27T01:25:17.457Z,8.000000
2023-11-27T01:30:17.397Z,9.000000
2023-11-27T01:35:17.388Z,13.000000
2023-11-27T01:40:19.214Z,8.000000
2023-11-27T01:45:19.263Z,8.000000
2023-11-27T01:51:02.691Z,11.000000
2023-11-27T01:56:00.708Z,11.000000
2023-11-27T02:01:00.809Z,13.000000
2023-11-27T02:06:00.732Z,12.000000
2023-11-27T02:11:00.692Z,13.000000
2023-11-27T02:15:17.199Z,6.000000
2023-11-27T02:21:00.716Z,12.000000
2023-11-27T02:25:17.346Z,14.000000
2023-11-27T02:31:00.860Z,8.000000
2023-11-27T02:36:00.719Z,16.000000
2023-11-27T02:41:00.735Z,13.000000
2023-11-27T02:46:00.757Z,13.000000
2023-11-27T02:51:00.732Z,13.000000
2023-11-27T02:55:17.297Z,14.000000
2023-11-27T03:00:17.324Z,13.000000
2023-11-27T03:05:17.252Z,14.000000
2023-11-27T03:10:15.520Z,13.000000
2023-11-27T03:16:00.785Z,12.000000
2023-11-27T03:20:17.244Z,9.000000
2023-11-27T03:26:00.761Z,8.000000
2023-11-27T03:30:17.250Z,9.000000
2023-11-27T03:35:15.528Z,14.000000
2023-11-27T03:41:01.226Z,14.000000
2023-11-27T03:46:00.955Z,15.000000
2023-11-27T03:50:17.265Z,11.000000
2023-11-27T03:55:15.577Z,13.000000
2023-11-27T04:01:00.873Z,12.000000
2023-11-27T04:06:00.758Z,12.000000
2023-11-27T04:10:17.785Z,14.000000
2023-11-27T04:15:17.305Z,18.000000
2023-11-27T04:20:17.274Z,19.000000
2023-11-27T04:25:15.522Z,13.000000
2023-11-27T04:31:00.818Z,16.000000
2023-11-27T04:35:17.357Z,14.000000
2023-11-27T04:41:00.867Z,18.000000
2023-11-27T04:45:17.288Z,17.000000
2023-11-27T04:50:17.316Z,13.000000
2023-11-27T04:55:17.381Z,16.000000
2023-11-27T05:00:16.935Z,19.000000
2023-11-27T05:05:16.783Z,21.000000
2023-11-27T05:10:16.842Z,20.000000
2023-11-27T05:15:18.632Z,14.000000
2023-11-27T05:21:02.060Z,19.000000
2023-11-27T05:26:02.102Z,17.000000
2023-11-27T05:30:24.821Z,13.000000
2023-11-27T05:35:18.638Z,13.000000
2023-11-27T05:40:16.956Z,15.000000
2023-11-27T05:45:16.826Z,15.000000
2023-11-27T05:51:02.108Z,14.000000
2023-11-27T05:56:02.109Z,15.000000
2023-11-27T06:00:17.326Z,19.000000
2023-11-27T06:06:01.998Z,13.000000
2023-11-27T06:10:18.604Z,16.000000
2023-11-27T06:15:18.625Z,17.000000
2023-11-27T06:20:18.550Z,20.000000
2023-11-27T06:25:16.808Z,17.000000
2023-11-27T06:30:16.795Z,18.000000
2023-11-27T06:36:02.080Z,21.000000
2023-11-27T06:40:18.627Z,29.000000
2023-11-27T06:45:18.699Z,26.000000
2023-11-27T06:50:16.793Z,20.000000
2023-11-27T06:55:18.695Z,15.000000
2023-11-27T07:00:18.606Z,20.000000
2023-11-27T07:05:18.584Z,24.000000
2023-11-27T07:10:18.715Z,21.000000
2023-11-27T07:15:16.813Z,19.000000
2023-11-27T07:20:16.800Z,23.000000
2023-11-27T07:25:18.739Z,18.000000
2023-11-27T07:30:16.817Z,17.000000
2023-11-27T07:36:02.108Z,16.000000
2023-11-27T07:41:02.087Z,14.000000
2023-11-27T07:45:24.878Z,14.000000
2023-11-27T07:50:18.674Z,15.000000
2023-11-27T07:55:24.895Z,14.000000
2023-11-27T08:00:18.663Z,11.000000
2023-11-27T08:05:17.179Z,13.000000
2023-11-27T08:10:18.715Z,17.000000
2023-11-27T08:15:16.875Z,15.000000
2023-11-27T08:20:18.676Z,19.000000
2023-11-27T08:25:18.858Z,21.000000
2023-11-27T08:30:18.832Z,17.000000
2023-11-27T08:35:18.647Z,16.000000
2023-11-27T08:40:18.742Z,15.000000
2023-11-27T08:46:02.192Z,17.000000
2023-11-27T08:51:02.111Z,14.000000
2023-11-27T08:55:24.900Z,14.000000
2023-11-27T09:01:02.309Z,12.000000
2023-11-27T09:05:18.662Z,14.000000
2023-11-27T09:10:18.739Z,19.000000
2023-11-27T09:15:16.699Z,14.000000
2023-11-27T09:20:18.704Z,17.000000
2023-11-27T09:25:16.913Z,21.000000
2023-11-27T09:31:02.350Z,18.000000
2023-11-27T09:35:18.748Z,16.000000
2023-11-27T09:40:17.211Z,18.000000
2023-11-27T09:45:18.780Z,18.000000
2023-11-27T09:50:19.194Z,15.000000
2023-11-27T09:55:16.936Z,18.000000
2023-11-27T10:00:18.737Z,17.000000
2023-11-27T10:06:02.175Z,11.000000
2023-11-27T10:10:16.938Z,12.000000
2023-11-27T10:15:18.735Z,12.000000
2023-11-27T10:21:02.183Z,12.000000
2023-11-27T10:25:16.937Z,5.000000
2023-11-27T10:30:18.749Z,4.000000
2023-11-27T10:36:02.191Z,4.000000
2023-11-27T10:40:24.998Z,4.000000
2023-11-27T10:45:18.810Z,5.000000
2023-11-27T10:50:24.950Z,7.000000
2023-11-27T10:55:25.034Z,6.000000
2023-11-27T11:00:18.700Z,6.000000
2023-11-27T11:05:18.711Z,4.000000
2023-11-27T11:10:18.762Z,6.000000
2023-11-27T11:15:19.565Z,4.000000
2023-11-27T11:20:18.734Z,7.000000
2023-11-27T11:25:18.877Z,5.000000
2023-11-27T11:30:18.750Z,5.000000
2023-11-27T11:36:02.227Z,6.000000
2023-11-27T11:41:02.211Z,9.000000
2023-11-27T11:46:02.236Z,9.000000
2023-11-27T11:50:16.930Z,10.000000
2023-11-27T11:55:16.792Z,9.000000
2023-11-27T12:00:16.957Z,10.000000
2023-11-27T12:05:18.883Z,9.000000
2023-11-27T12:11:02.688Z,11.000000
2023-11-27T12:15:16.726Z,6.000000
2023-11-27T12:21:02.194Z,13.000000
2023-11-27T12:25:16.991Z,10.000000
2023-11-27T12:30:18.762Z,9.000000
2023-11-27T12:35:18.823Z,12.000000
2023-11-27T12:40:19.082Z,14.000000
2023-11-27T12:45:17.000Z,9.000000
2023-11-27T12:50:18.866Z,10.000000
2023-11-27T12:56:02.373Z,11.000000
2023-11-27T13:00:18.802Z,10.000000
2023-11-27T13:05:18.802Z,10.000000
2023-11-27T13:11:02.303Z,11.000000
2023-11-27T13:16:02.424Z,7.000000
2023-11-27T13:20:25.003Z,9.000000
2023-11-27T13:26:02.248Z,12.000000
2023-11-27T13:30:18.789Z,10.000000
2023-11-27T13:35:18.766Z,7.000000
2023-11-27T13:41:02.230Z,9.000000
2023-11-27T13:45:18.792Z,7.000000
2023-11-27T13:50:17.017Z,9.000000
2023-11-27T13:55:16.851Z,6.000000
2023-11-27T14:00:18.886Z,6.000000
2023-11-27T14:05:18.951Z,7.000000
2023-11-27T14:10:18.855Z,11.000000
2023-11-27T14:15:18.842Z,11.000000
2023-11-27T14:20:18.841Z,7.000000
2023-11-27T14:25:18.892Z,9.000000
2023-11-27T14:30:18.814Z,12.000000
2023-11-27T14:35:16.986Z,13.000000
2023-11-27T14:40:19.039Z,9.000000
2023-11-27T14:45:18.837Z,11.000000
2023-11-27T14:50:21.408Z,8.000000
2023-11-27T14:55:18.884Z,10.000000
2023-11-27T15:00:18.907Z,15.000000
2023-11-27T15:06:02.368Z,7.000000
2023-11-27T15:11:02.275Z,10.000000
2023-11-27T15:15:16.864Z,11.000000
2023-11-27T15:20:17.080Z,11.000000
2023-11-27T15:26:02.400Z,15.000000
2023-11-27T15:30:19.046Z,11.000000
2023-11-27T15:35:18.866Z,6.000000
2023-11-27T15:40:26.860Z,10.000000
2023-11-27T15:45:18.863Z,12.000000
2023-11-27T15:50:17.046Z,8.000000
2023-11-27T15:55:17.131Z,9.000000
2023-11-27T16:00:18.905Z,12.000000
2023-11-27T16:06:02.394Z,9.000000
2023-11-27T16:10:18.835Z,8.000000
2023-11-27T16:15:18.880Z,9.000000
2023-11-27T16:21:02.313Z,8.000000
2023-11-27T16:26:02.374Z,12.000000
2023-11-27T16:30:16.844Z,12.000000
2023-11-27T16:35:18.912Z,8.000000
2023-11-27T16:40:19.100Z,8.000000
2023-11-27T16:46:02.382Z,8.000000
2023-11-27T16:50:18.850Z,7.000000
2023-11-27T16:56:02.407Z,12.000000
2023-11-27T17:00:18.834Z,7.000000
2023-11-27T17:06:02.422Z,12.000000
2023-11-27T17:10:18.963Z,9.000000
2023-11-27T17:15:25.140Z,8.000000
2023-11-27T17:20:18.911Z,6.000000
2023-11-27T17:25:25.268Z,8.000000
2023-11-27T17:30:18.874Z,14.000000
2023-11-27T17:35:16.876Z,11.000000
2023-11-27T17:40:25.256Z,8.000000
2023-11-27T17:46:02.570Z,8.000000
2023-11-27T17:50:18.942Z,7.000000
2023-11-27T17:55:18.985Z,6.000000
2023-11-27T18:01:02.445Z,7.000000
2023-11-27T18:05:17.114Z,8.000000
2023-11-27T18:11:02.410Z,14.000000
2023-11-27T18:15:18.946Z,9.000000
2023-11-27T18:21:02.407Z,7.000000
2023-11-27T18:25:17.158Z,9.000000
2023-11-27T18:30:18.946Z,7.000000
2023-11-27T18:35:18.908Z,10.000000
2023-11-27T18:40:19.684Z,7.000000
2023-11-27T18:45:18.933Z,10.000000
2023-11-27T18:50:18.940Z,11.000000
2023-11-27T18:56:02.407Z,9.000000
2023-11-27T19:00:18.946Z,8.000000
2023-11-27T19:05:18.949Z,9.000000
2023-11-27T19:11:02.400Z,7.000000
2023-11-27T19:16:02.438Z,13.000000
2023-11-27T19:20:17.239Z,9.000000
2023-11-27T19:25:17.182Z,8.000000
2023-11-27T19:30:25.183Z,11.000000
2023-11-27T19:35:18.959Z,8.000000
2023-11-27T19:41:02.390Z,9.000000
2023-11-27T19:45:18.927Z,9.000000
2023-11-27T19:50:18.971Z,8.000000
2023-11-27T19:55:17.180Z,7.000000
2023-11-27T20:00:19.016Z,13.000000
2023-11-27T20:06:02.471Z,8.000000
2023-11-27T20:10:17.218Z,6.000000
2023-11-27T20:15:18.966Z,10.000000
2023-11-27T20:20:18.992Z,10.000000
2023-11-27T20:25:17.171Z,7.000000
2023-11-27T20:30:56.247Z,7.000000
2023-11-27T20:35:18.988Z,5.000000
2023-11-27T20:40:19.025Z,6.000000
2023-11-27T20:46:02.474Z,6.000000
2023-11-27T20:50:18.978Z,8.000000
2023-11-27T20:56:02.533Z,6.000000
2023-11-27T21:00:25.227Z,4.000000
2023-11-27T21:05:18.992Z,6.000000
2023-11-27T21:10:18.998Z,8.000000
2023-11-27T21:15:18.984Z,3.000000
2023-11-27T21:20:19.001Z,2.000000
2023-11-27T21:25:17.214Z,4.000000
2023-11-27T21:31:02.686Z,5.000000
2023-11-27T21:36:02.526Z,5.000000
2023-11-27T21:40:17.269Z,5.000000
2023-11-27T21:45:17.216Z,4.000000
2023-11-27T21:50:18.992Z,7.000000
2023-11-27T21:55:17.291Z,3.000000
2023-11-27T22:01:15.347Z,5.000000
2023-11-27T22:05:17.305Z,5.000000
2023-11-27T22:10:17.059Z,2.000000
2023-11-27T22:15:19.073Z,3.000000
2023-11-27T22:20:18.983Z,2.000000
2023-11-27T22:25:17.188Z,2.000000
2023-11-27T22:30:19.042Z,4.000000
2023-11-27T22:36:02.478Z,4.000000
2023-11-27T22:41:02.517Z,4.000000
2023-11-27T22:46:02.483Z,4.000000
2023-11-27T22:51:02.469Z,5.000000
2023-11-27T22:55:25.280Z,3.000000
2023-11-27T23:00:19.062Z,2.000000
2023-11-27T23:06:02.512Z,1.000000
2023-11-27T23:10:56.308Z,2.000000
2023-11-27T23:15:19.100Z,3.000000
2023-11-27T23:21:02.587Z,4.000000
2023-11-27T23:26:02.586Z,3.000000
2023-11-27T23:30:19.046Z,4.000000
2023-11-27T23:35:56.306Z,6.000000
2023-11-27T23:40:19.093Z,3.000000
2023-11-27T23:45:19.166Z,3.000000
2023-11-27T23:50:17.065Z,6.000000
2023-11-27T23:55:17.245Z,4.000000
